Time;durP1;ratioP1;P1;durP2;ratioP2;P2;SDS_P1;SDS_P2;PMS_P1;PMS_P2;Temp;Humidity;BMP_temperature;BMP_pressure;BME280_temperature;BME280_humidity;BME280_pressure;Samples;Min_cycle;Max_cycle;Signal;HPM_P1;HPM_P2
2023/10/23 00:02:22;;;;;;;8.73;3.43;;;9.10;99.90;;;;;;5131239;27;20220;-79
2023/10/23 00:04:49;;;;;;;3.30;3.00;;;9.20;99.90;;;;;;5128992;27;20201;-79
2023/10/23 00:07:16;;;;;;;4.77;3.03;;;9.30;99.90;;;;;;5124530;27;20682;-78
2023/10/23 00:09:43;;;;;;;5.33;3.23;;;9.50;99.90;;;;;;5136637;27;20323;-79
2023/10/23 00:12:11;;;;;;;3.17;2.87;;;9.50;99.90;;;;;;5132460;27;20247;-79
2023/10/23 00:14:38;;;;;;;3.60;2.80;;;9.40;99.90;;;;;;5132751;27;20212;-79
2023/10/23 00:17:05;;;;;;;2.70;2.50;;;9.40;99.90;;;;;;5122118;27;20632;-78
2023/10/23 00:19:32;;;;;;;3.93;3.23;;;9.40;99.90;;;;;;5139269;27;20557;-79
2023/10/23 00:21:59;;;;;;;4.83;3.50;;;9.50;99.90;;;;;;5138698;27;20219;-79
2023/10/23 00:24:25;;;;;;;3.47;2.90;;;9.40;99.90;;;;;;5135936;27;20203;-80
2023/10/23 00:26:52;;;;;;;5.50;3.57;;;9.50;99.90;;;;;;5122509;27;20205;-79
2023/10/23 00:29:20;;;;;;;3.83;2.83;;;9.50;99.90;;;;;;5132543;27;20216;-80
2023/10/23 00:31:47;;;;;;;4.30;3.43;;;9.50;99.90;;;;;;5123400;27;20220;-80
2023/10/23 00:34:14;;;;;;;8.07;3.07;;;9.50;99.90;;;;;;5122373;27;20228;-79
2023/10/23 00:36:41;;;;;;;6.50;3.17;;;9.40;99.90;;;;;;5135209;27;20219;-79
2023/10/23 00:39:07;;;;;;;4.70;2.97;;;9.30;99.90;;;;;;5138062;27;20204;-79
2023/10/23 00:41:34;;;;;;;4.90;3.03;;;9.40;99.90;;;;;;5137478;27;20227;-80
2023/10/23 00:44:02;;;;;;;3.30;3.00;;;9.40;99.90;;;;;;5137911;27;20214;-79
2023/10/23 00:46:31;;;;;;;7.33;3.37;;;9.40;99.90;;;;;;5125227;27;20207;-78
2023/10/23 00:48:58;;;;;;;4.80;3.20;;;9.50;99.90;;;;;;5131715;27;20224;-79
2023/10/23 00:51:26;;;;;;;6.67;2.90;;;9.60;99.90;;;;;;5125210;27;20257;-79
2023/10/23 00:53:53;;;;;;;5.47;3.27;;;9.70;99.90;;;;;;5117349;27;20674;-78
2023/10/23 00:56:20;;;;;;;4.60;3.03;;;9.60;99.90;;;;;;5119590;27;20211;-79
2023/10/23 00:58:47;;;;;;;4.23;3.10;;;9.70;99.90;;;;;;5115757;27;20201;-79
2023/10/23 01:01:14;;;;;;;3.53;2.90;;;9.60;99.90;;;;;;5113014;27;20236;-79
2023/10/23 01:03:43;;;;;;;7.00;3.10;;;9.70;99.90;;;;;;5126338;27;20208;-79
2023/10/23 01:06:12;;;;;;;3.47;3.00;;;9.70;99.90;;;;;;5120498;27;20282;-79
2023/10/23 01:08:39;;;;;;;4.70;2.67;;;9.70;99.90;;;;;;5119471;28;20226;-78
2023/10/23 01:11:06;;;;;;;4.97;2.90;;;9.70;99.90;;;;;;5128779;27;20239;-80
2023/10/23 01:13:33;;;;;;;4.43;3.20;;;9.70;99.90;;;;;;5124603;27;20281;-80
2023/10/23 01:16:00;;;;;;;3.50;2.70;;;9.70;99.90;;;;;;5127097;27;20204;-80
2023/10/23 01:18:27;;;;;;;2.80;2.60;;;9.70;99.90;;;;;;5139262;27;20557;-79
2023/10/23 01:20:55;;;;;;;4.30;2.60;;;9.70;99.90;;;;;;5131104;27;20259;-80
2023/10/23 01:23:25;;;;;;;4.30;2.80;;;9.70;99.90;;;;;;5125523;27;20200;-80
2023/10/23 01:25:54;;;;;;;3.10;2.80;;;9.80;99.90;;;;;;5135980;27;20220;-80
2023/10/23 01:28:20;;;;;;;4.20;2.70;;;9.90;99.90;;;;;;5119517;27;20288;-80
2023/10/23 01:30:47;;;;;;;3.23;2.93;;;9.90;99.90;;;;;;5133310;27;20634;-79
2023/10/23 01:33:14;;;;;;;3.20;2.83;;;9.90;99.90;;;;;;5137123;27;20211;-79
2023/10/23 01:35:41;;;;;;;3.40;2.80;;;9.90;99.90;;;;;;5136862;27;20208;-78
2023/10/23 01:38:07;;;;;;;4.10;2.90;;;10.20;99.90;;;;;;5129812;27;20648;-79
2023/10/23 01:40:34;;;;;;;4.67;2.67;;;10.10;99.90;;;;;;5136610;27;20394;-78
2023/10/23 01:43:03;;;;;;;4.83;3.03;;;10.20;99.90;;;;;;5126400;27;20203;-79
2023/10/23 01:45:30;;;;;;;3.20;2.70;;;10.10;99.90;;;;;;5134089;27;20200;-79
2023/10/23 01:47:56;;;;;;;2.67;2.47;;;10.10;99.90;;;;;;5136071;27;20622;-79
2023/10/23 01:50:24;;;;;;;4.13;2.60;;;10.10;99.90;;;;;;5124402;27;20216;-78
2023/10/23 01:52:51;;;;;;;3.27;2.80;;;10.10;99.90;;;;;;5119941;27;20208;-79
2023/10/23 01:55:18;;;;;;;3.87;2.90;;;10.20;99.90;;;;;;5117754;27;20592;-79
2023/10/23 01:57:45;;;;;;;3.13;2.60;;;10.20;99.90;;;;;;5126069;28;20208;-80
2023/10/23 02:00:14;;;;;;;3.00;2.70;;;10.30;99.90;;;;;;5126795;27;20205;-80
2023/10/23 02:02:41;;;;;;;6.73;3.00;;;10.30;99.90;;;;;;5125909;27;20738;-80
2023/10/23 02:05:08;;;;;;;3.87;3.27;;;10.30;99.90;;;;;;5133994;27;20223;-80
2023/10/23 02:07:35;;;;;;;5.10;2.97;;;10.40;99.90;;;;;;5131562;27;20576;-80
2023/10/23 02:10:02;;;;;;;4.13;3.43;;;10.40;99.90;;;;;;5125651;28;20347;-79
2023/10/23 02:12:28;;;;;;;4.30;3.17;;;10.40;99.90;;;;;;5123062;27;20227;-80
2023/10/23 02:14:56;;;;;;;4.87;3.57;;;10.60;99.90;;;;;;5131796;28;20214;-79
2023/10/23 02:17:24;;;;;;;3.70;3.17;;;10.50;99.90;;;;;;5127471;27;20211;-78
2023/10/23 02:19:51;;;;;;;3.67;3.03;;;10.50;99.90;;;;;;5117470;27;20200;-79
2023/10/23 02:22:19;;;;;;;2.80;2.60;;;10.50;99.90;;;;;;5121043;27;20224;-80
2023/10/23 02:24:45;;;;;;;4.30;3.20;;;10.50;99.90;;;;;;5133014;27;20277;-78
2023/10/23 02:27:12;;;;;;;3.93;2.73;;;10.60;99.90;;;;;;5128870;27;20229;-79
2023/10/23 02:29:40;;;;;;;3.50;3.10;;;10.50;99.90;;;;;;5141845;27;20234;-79
2023/10/23 02:32:08;;;;;;;2.90;2.53;;;10.50;99.90;;;;;;5129158;27;20229;-80
2023/10/23 02:34:37;;;;;;;3.10;2.80;;;10.50;99.90;;;;;;5123060;27;20204;-79
2023/10/23 02:37:04;;;;;;;5.63;2.73;;;10.60;99.90;;;;;;5132374;27;20270;-79
2023/10/23 02:39:30;;;;;;;5.70;4.33;;;10.50;99.90;;;;;;5124767;27;20203;-79
2023/10/23 02:41:57;;;;;;;6.80;5.07;;;10.50;99.90;;;;;;5130414;27;20230;-79
2023/10/23 02:44:24;;;;;;;15.17;10.07;;;10.40;99.90;;;;;;5131065;27;20268;-80
2023/10/23 02:46:51;;;;;;;4.93;3.80;;;10.50;99.90;;;;;;5133766;27;20264;-80
2023/10/23 02:49:18;;;;;;;5.00;3.30;;;10.40;99.90;;;;;;5130837;27;20216;-80
2023/10/23 02:51:48;;;;;;;2.97;2.73;;;10.40;99.90;;;;;;5136852;27;20232;-80
2023/10/23 02:54:16;;;;;;;2.63;2.43;;;10.50;99.90;;;;;;5134968;27;20234;-78
2023/10/23 02:56:43;;;;;;;4.70;2.50;;;10.50;99.90;;;;;;5123272;28;20205;-79
2023/10/23 02:59:09;;;;;;;3.43;2.63;;;10.40;99.90;;;;;;5123113;27;20233;-78
2023/10/23 03:01:37;;;;;;;2.40;2.20;;;10.40;99.90;;;;;;5132451;27;20263;-80
2023/10/23 03:04:05;;;;;;;3.97;2.57;;;10.40;99.90;;;;;;5125966;27;20208;-79
2023/10/23 03:06:32;;;;;;;2.83;2.63;;;10.30;99.90;;;;;;5117597;28;20221;-80
2023/10/23 03:09:00;;;;;;;3.97;2.90;;;10.40;99.90;;;;;;5135151;27;20220;-81
2023/10/23 03:11:27;;;;;;;3.10;2.80;;;10.40;99.90;;;;;;5134922;27;20234;-79
2023/10/23 03:13:54;;;;;;;3.50;3.03;;;10.40;99.90;;;;;;5135991;27;20211;-79
2023/10/23 03:16:21;;;;;;;3.70;2.80;;;10.40;99.90;;;;;;5136688;27;20209;-81
2023/10/23 03:18:47;;;;;;;4.23;3.13;;;10.50;99.90;;;;;;5129488;27;20583;-80
2023/10/23 03:21:14;;;;;;;3.07;2.77;;;10.50;99.90;;;;;;5135081;27;20435;-80
2023/10/23 03:23:41;;;;;;;2.60;2.40;;;10.50;99.90;;;;;;5129803;27;20571;-79
2023/10/23 03:26:09;;;;;;;4.47;3.70;;;10.60;99.90;;;;;;5117815;27;20695;-79
2023/10/23 03:28:36;;;;;;;9.33;6.13;;;10.50;99.90;;;;;;5119598;27;20215;-79
2023/10/23 03:31:03;;;;;;;4.50;3.47;;;10.60;99.90;;;;;;5119235;28;20216;-80
2023/10/23 03:33:30;;;;;;;5.70;3.93;;;10.70;99.90;;;;;;5129797;27;20224;-80
2023/10/23 03:35:57;;;;;;;4.67;3.17;;;10.70;99.90;;;;;;5132088;27;20256;-79
2023/10/23 03:38:23;;;;;;;5.37;3.33;;;10.70;99.90;;;;;;5128643;27;20237;-80
2023/10/23 03:40:58;;;;;;;6.57;3.70;;;10.70;99.90;;;;;;5132394;27;20220;-80
2023/10/23 03:43:26;;;;;;;4.23;3.70;;;10.70;99.90;;;;;;5118050;27;20208;-79
2023/10/23 03:45:53;;;;;;;4.33;3.23;;;10.70;99.90;;;;;;5132099;27;20219;-78
2023/10/23 03:48:20;;;;;;;3.83;3.53;;;10.80;99.90;;;;;;5123912;27;20213;-79
2023/10/23 03:50:47;;;;;;;5.23;4.03;;;10.90;99.90;;;;;;5123950;27;20579;-80
2023/10/23 03:53:14;;;;;;;4.13;3.57;;;10.80;99.90;;;;;;5113943;27;20211;-80
2023/10/23 03:55:41;;;;;;;3.33;2.93;;;10.80;99.90;;;;;;5119615;27;20288;-80
2023/10/23 03:58:07;;;;;;;3.77;3.23;;;10.80;99.90;;;;;;5123039;27;20208;-80
2023/10/23 04:00:36;;;;;;;3.47;3.17;;;10.90;99.90;;;;;;5123907;27;20256;-79
2023/10/23 04:03:03;;;;;;;4.10;3.60;;;11.00;99.90;;;;;;5124128;27;20311;-79
2023/10/23 04:05:31;;;;;;;5.47;3.90;;;11.00;99.90;;;;;;5124360;27;20264;-78
2023/10/23 04:07:58;;;;;;;4.27;3.43;;;11.00;99.90;;;;;;5120318;27;20204;-79
2023/10/23 04:10:24;;;;;;;4.93;3.50;;;11.00;99.90;;;;;;5120758;27;20229;-79
2023/10/23 04:12:51;;;;;;;4.03;3.07;;;10.90;99.90;;;;;;5126448;27;20204;-79
2023/10/23 04:15:18;;;;;;;4.23;3.10;;;10.90;99.90;;;;;;5124717;27;20200;-79
2023/10/23 04:17:46;;;;;;;3.73;2.97;;;10.90;99.90;;;;;;5131760;27;20291;-79
2023/10/23 04:20:13;;;;;;;3.43;3.13;;;10.80;99.90;;;;;;5120848;27;20224;-80
2023/10/23 04:22:40;;;;;;;4.20;2.90;;;10.80;99.90;;;;;;5132496;27;20200;-80
2023/10/23 04:25:07;;;;;;;6.03;4.07;;;10.70;99.90;;;;;;5128744;27;20197;-80
2023/10/23 04:27:34;;;;;;;4.07;3.00;;;10.80;99.90;;;;;;5122764;27;20196;-80
2023/10/23 04:30:01;;;;;;;5.13;3.30;;;10.70;99.90;;;;;;5127260;27;20213;-80
2023/10/23 04:32:28;;;;;;;3.90;3.50;;;10.60;99.90;;;;;;5116654;27;20260;-80
2023/10/23 04:34:56;;;;;;;5.90;3.53;;;10.50;99.90;;;;;;5120954;28;20201;-79
2023/10/23 04:37:23;;;;;;;5.20;3.37;;;10.50;99.90;;;;;;5119932;27;20205;-80
2023/10/23 04:39:50;;;;;;;3.80;3.30;;;10.50;99.90;;;;;;5124902;27;20284;-79
2023/10/23 04:42:17;;;;;;;5.10;3.53;;;10.40;99.90;;;;;;5129310;27;20223;-80
2023/10/23 04:44:47;;;;;;;7.50;4.33;;;10.30;99.90;;;;;;5133018;27;20211;-79
2023/10/23 04:47:13;;;;;;;3.90;3.47;;;10.30;99.90;;;;;;5125711;27;20205;-79
2023/10/23 04:49:40;;;;;;;4.77;3.70;;;10.30;99.90;;;;;;5116756;28;20216;-80
2023/10/23 04:52:08;;;;;;;4.73;4.07;;;10.40;99.90;;;;;;5115754;28;20224;-80
2023/10/23 04:54:35;;;;;;;4.70;3.83;;;10.40;99.90;;;;;;5120225;27;20213;-79
2023/10/23 04:57:02;;;;;;;5.20;4.27;;;10.30;99.90;;;;;;5120007;27;20260;-80
2023/10/23 04:59:29;;;;;;;4.43;3.93;;;10.40;99.90;;;;;;5119633;27;20205;-80
2023/10/23 05:01:56;;;;;;;4.23;3.83;;;10.30;99.90;;;;;;5119175;27;20252;-80
2023/10/23 05:04:23;;;;;;;6.07;4.17;;;10.30;99.90;;;;;;5124590;27;20211;-80
2023/10/23 05:06:50;;;;;;;6.57;3.93;;;10.10;99.90;;;;;;5123693;27;20196;-79
2023/10/23 05:09:18;;;;;;;4.10;3.70;;;10.10;99.90;;;;;;5128621;27;20232;-79
2023/10/23 05:11:45;;;;;;;5.80;4.10;;;10.20;99.90;;;;;;5123972;27;20284;-80
2023/10/23 05:14:12;;;;;;;5.03;4.10;;;10.10;99.90;;;;;;5124285;27;20205;-80
2023/10/23 05:16:39;;;;;;;5.70;4.17;;;10.10;99.90;;;;;;5123392;27;20200;-78
2023/10/23 05:19:06;;;;;;;8.03;4.43;;;10.10;99.90;;;;;;5120904;27;20205;-80
2023/10/23 05:21:32;;;;;;;4.60;4.13;;;10.00;99.90;;;;;;5121552;27;20311;-80
2023/10/23 05:23:59;;;;;;;4.90;3.87;;;10.00;99.90;;;;;;5121826;27;20668;-80
2023/10/23 05:26:27;;;;;;;6.20;4.80;;;9.90;99.90;;;;;;5117151;27;20675;-79
2023/10/23 05:28:54;;;;;;;5.67;4.00;;;9.90;99.90;;;;;;5119881;28;20211;-79
2023/10/23 05:31:21;;;;;;;5.80;3.93;;;9.90;99.90;;;;;;5127854;27;20247;-80
2023/10/23 05:33:49;;;;;;;4.30;3.90;;;9.90;99.90;;;;;;5127017;27;20227;-80
2023/10/23 05:36:16;;;;;;;5.83;4.20;;;9.90;99.90;;;;;;5127912;27;20287;-80
2023/10/23 05:38:42;;;;;;;8.23;4.63;;;9.90;99.90;;;;;;5131377;27;20264;-79
2023/10/23 05:41:09;;;;;;;5.10;3.80;;;10.00;99.90;;;;;;5123794;27;20237;-79
2023/10/23 05:43:38;;;;;;;5.60;4.17;;;9.90;99.90;;;;;;5125427;27;20632;-79
2023/10/23 05:46:05;;;;;;;6.53;4.47;;;9.90;99.90;;;;;;5128141;27;20264;-80
2023/10/23 05:48:33;;;;;;;5.77;4.53;;;10.00;99.90;;;;;;5120122;27;20254;-80
2023/10/23 05:51:01;;;;;;;6.27;4.60;;;10.00;99.90;;;;;;5117244;27;20217;-80
2023/10/23 05:53:28;;;;;;;5.93;4.60;;;10.10;99.90;;;;;;5119808;27;20224;-80
2023/10/23 05:56:00;;;;;;;9.10;4.83;;;10.20;99.90;;;;;;5117019;27;20193;-80
2023/10/23 05:58:27;;;;;;;5.87;4.80;;;10.20;99.90;;;;;;5123081;27;20193;-79
2023/10/23 06:00:55;;;;;;;6.07;4.47;;;10.20;99.90;;;;;;5115982;27;20223;-80
2023/10/23 06:03:22;;;;;;;8.47;4.90;;;10.10;99.90;;;;;;5116425;27;20204;-79
2023/10/23 06:05:48;;;;;;;5.97;4.17;;;10.20;99.90;;;;;;5116354;27;20208;-80
2023/10/23 06:08:15;;;;;;;9.17;4.53;;;10.20;99.90;;;;;;5114768;28;20668;-79
2023/10/23 06:10:43;;;;;;;5.70;4.73;;;10.30;99.90;;;;;;5117475;27;20234;-78
2023/10/23 06:13:10;;;;;;;6.30;4.60;;;10.30;99.90;;;;;;5122349;27;20197;-78
2023/10/23 06:15:37;;;;;;;5.57;4.93;;;10.30;99.90;;;;;;5111571;27;20232;-78
2023/10/23 06:18:05;;;;;;;6.27;4.87;;;10.30;99.90;;;;;;5114959;28;20292;-78
2023/10/23 06:20:32;;;;;;;5.90;5.00;;;10.40;99.90;;;;;;5120432;27;20217;-78
2023/10/23 06:22:59;;;;;;;6.57;4.67;;;10.40;99.90;;;;;;5112176;28;20205;-80
2023/10/23 06:25:27;;;;;;;7.17;4.67;;;10.30;99.90;;;;;;5118354;27;20532;-79
2023/10/23 06:27:54;;;;;;;7.03;5.43;;;10.30;99.90;;;;;;5115721;27;20287;-78
2023/10/23 06:30:21;;;;;;;6.63;5.43;;;10.30;99.90;;;;;;5111659;27;20311;-78
2023/10/23 06:32:48;;;;;;;7.17;5.77;;;10.30;99.90;;;;;;5122121;27;20196;-79
2023/10/23 06:35:16;;;;;;;8.03;5.13;;;10.40;99.90;;;;;;5117270;28;20201;-79
2023/10/23 06:37:43;;;;;;;6.50;5.27;;;10.40;99.90;;;;;;5119956;27;20201;-78
2023/10/23 06:40:10;;;;;;;7.00;4.93;;;10.40;99.90;;;;;;5119241;28;20201;-80
2023/10/23 06:42:37;;;;;;;5.73;4.40;;;10.50;99.90;;;;;;5118053;27;20246;-79
2023/10/23 06:45:05;;;;;;;5.70;4.90;;;10.50;99.90;;;;;;5115378;28;20193;-80
2023/10/23 06:47:31;;;;;;;6.67;5.20;;;10.50;99.90;;;;;;5109872;27;20685;-79
2023/10/23 06:49:59;;;;;;;6.30;5.20;;;10.60;99.90;;;;;;5117994;28;20263;-80
2023/10/23 06:52:27;;;;;;;6.10;5.20;;;10.70;99.90;;;;;;5117326;27;20242;-79
2023/10/23 06:54:54;;;;;;;8.43;5.23;;;10.70;99.90;;;;;;5121370;27;20573;-79
2023/10/23 06:57:21;;;;;;;9.30;5.70;;;10.70;99.90;;;;;;5118613;27;20678;-78
2023/10/23 06:59:48;;;;;;;7.20;5.67;;;10.70;99.90;;;;;;5116277;27;20574;-79
2023/10/23 07:02:15;;;;;;;7.73;5.70;;;10.60;99.90;;;;;;5118157;27;20236;-78
2023/10/23 07:04:41;;;;;;;6.93;5.80;;;10.70;99.90;;;;;;5120612;27;20569;-79
2023/10/23 07:07:08;;;;;;;7.33;5.83;;;10.70;99.90;;;;;;5124766;27;20197;-78
2023/10/23 07:09:36;;;;;;;8.20;5.70;;;10.80;99.90;;;;;;5118609;28;20236;-78
2023/10/23 07:12:04;;;;;;;8.13;5.73;;;10.90;99.90;;;;;;5118585;28;20217;-79
2023/10/23 07:14:30;;;;;;;8.57;6.47;;;10.90;99.90;;;;;;5125502;27;20193;-79
2023/10/23 07:16:57;;;;;;;7.17;5.90;;;11.00;99.90;;;;;;5125901;27;20198;-78
2023/10/23 07:19:24;;;;;;;9.53;6.43;;;11.00;99.90;;;;;;5123648;27;20578;-79
2023/10/23 07:21:51;;;;;;;8.00;6.50;;;11.00;99.90;;;;;;5127271;27;20746;-78
2023/10/23 07:24:17;;;;;;;7.93;6.20;;;11.10;99.90;;;;;;5119336;27;20663;-79
2023/10/23 07:26:46;;;;;;;8.30;6.57;;;11.30;99.90;;;;;;5117723;27;20209;-80
2023/10/23 07:29:12;;;;;;;10.73;5.73;;;11.20;99.90;;;;;;5117907;27;20207;-79
2023/10/23 07:31:39;;;;;;;11.50;6.07;;;11.20;99.90;;;;;;5121778;27;20232;-79
2023/10/23 07:34:06;;;;;;;6.83;5.90;;;11.30;99.90;;;;;;5116050;27;20621;-79
2023/10/23 07:36:33;;;;;;;8.83;6.60;;;11.40;99.90;;;;;;5117332;28;20720;-79
2023/10/23 07:39:00;;;;;;;8.90;5.97;;;11.40;99.90;;;;;;5120973;27;20291;-79
2023/10/23 07:41:27;;;;;;;8.17;6.50;;;11.50;99.90;;;;;;5119509;27;20213;-79
2023/10/23 07:43:55;;;;;;;9.67;7.03;;;11.60;99.90;;;;;;5121330;27;20284;-78
2023/10/23 07:46:21;;;;;;;8.43;6.17;;;11.80;99.90;;;;;;5119389;27;20197;-79
2023/10/23 07:48:48;;;;;;;10.63;6.90;;;12.20;99.90;;;;;;5118730;27;20201;-78
2023/10/23 07:51:15;;;;;;;10.07;7.33;;;12.50;99.90;;;;;;5120755;27;20680;-79
2023/10/23 07:53:42;;;;;;;13.93;7.67;;;12.20;99.90;;;;;;5120257;27;20598;-79
2023/10/23 07:56:09;;;;;;;13.17;8.20;;;12.00;99.90;;;;;;5115596;27;20287;-79
2023/10/23 07:58:36;;;;;;;9.97;7.07;;;12.00;99.90;;;;;;5117337;27;20205;-79
2023/10/23 08:01:05;;;;;;;11.17;7.33;;;12.00;99.90;;;;;;5121573;27;20214;-79
2023/10/23 08:03:33;;;;;;;13.93;8.23;;;12.00;99.90;;;;;;5117190;27;20197;-79
2023/10/23 08:06:00;;;;;;;10.50;8.10;;;12.10;99.90;;;;;;5119869;27;20628;-79
2023/10/23 08:08:27;;;;;;;13.57;8.23;;;11.90;99.90;;;;;;5118165;27;20292;-79
2023/10/23 08:10:53;;;;;;;13.00;8.43;;;11.90;99.90;;;;;;5120755;27;20315;-81
2023/10/23 08:13:20;;;;;;;17.37;8.83;;;12.10;99.90;;;;;;5118639;28;20265;-81
2023/10/23 08:15:47;;;;;;;11.17;7.73;;;12.00;99.90;;;;;;5112247;27;20679;-80
2023/10/23 08:18:15;;;;;;;11.97;8.57;;;12.10;99.90;;;;;;5114725;27;20283;-81
2023/10/23 08:20:42;;;;;;;12.73;8.00;;;12.00;99.90;;;;;;5119379;27;20228;-81
2023/10/23 08:23:09;;;;;;;11.60;8.30;;;12.20;99.90;;;;;;5122651;27;20289;-81
2023/10/23 08:25:35;;;;;;;12.17;7.77;;;12.40;99.90;;;;;;5118824;27;20680;-80
2023/10/23 08:28:03;;;;;;;11.30;7.80;;;12.40;99.90;;;;;;5119889;27;20278;-81
2023/10/23 08:30:29;;;;;;;12.40;8.33;;;12.30;99.90;;;;;;5120291;27;20224;-80
2023/10/23 08:32:56;;;;;;;10.33;6.97;;;12.50;99.90;;;;;;5123248;27;20304;-79
2023/10/23 08:35:27;;;;;;;10.93;7.80;;;12.50;99.90;;;;;;5121912;27;20644;-79
2023/10/23 08:37:54;;;;;;;12.13;7.43;;;12.50;99.90;;;;;;5118889;27;20560;-79
2023/10/23 08:40:21;;;;;;;10.27;7.27;;;12.50;99.90;;;;;;5118054;28;20279;-80
2023/10/23 08:42:48;;;;;;;8.60;6.90;;;12.60;99.90;;;;;;5120109;27;20207;-80
2023/10/23 08:45:17;;;;;;;8.73;6.80;;;12.70;99.90;;;;;;5117407;28;20618;-79
2023/10/23 08:47:44;;;;;;;10.13;6.87;;;12.80;99.90;;;;;;5113842;27;20208;-80
2023/10/23 08:50:11;;;;;;;9.80;6.43;;;12.90;99.90;;;;;;5117930;27;20243;-80
2023/10/23 08:52:44;;;;;;;9.37;6.40;;;13.00;99.90;;;;;;5109426;27;20232;-79
2023/10/23 08:55:13;;;;;;;8.60;6.10;;;13.00;99.90;;;;;;5110321;27;20556;-80
2023/10/23 08:57:44;;;;;;;8.18;5.93;;;13.20;25.40;;;;;;5117089;28;20212;-80
2023/10/23 09:00:12;;;;;;;8.18;5.50;;;13.30;1.00;;;;;;5116369;27;20221;-81
2023/10/23 09:02:38;;;;;;;9.02;6.45;;;13.40;1.00;;;;;;5117053;27;20283;-81
2023/10/23 09:05:06;;;;;;;6.57;5.82;;;13.40;1.00;;;;;;5118548;27;20207;-81
2023/10/23 09:07:33;;;;;;;11.15;6.60;;;13.60;99.90;;;;;;5114328;27;20219;-80
2023/10/23 09:10:05;;;;;;;9.95;6.20;;;13.70;1.00;;;;;;5115735;27;20203;-81
2023/10/23 09:12:32;;;;;;;10.70;5.72;;;13.60;45.50;;;;;;5118033;27;20260;-80
2023/10/23 09:15:12;;;;;;;7.13;5.80;;;13.60;1.00;;;;;;5117607;27;20204;-80
2023/10/23 09:17:39;;;;;;;9.95;7.20;;;13.80;1.00;;;;;;5116073;27;20229;-80
2023/10/23 09:20:21;;;;;;;9.77;8.07;;;13.80;1.00;;;;;;5115602;28;20192;-80
2023/10/23 09:22:48;;;;;;;10.77;7.63;;;13.80;99.90;;;;;;5115518;27;20208;-80
2023/10/23 09:25:18;;;;;;;12.77;7.10;;;13.90;99.90;;;;;;5117075;27;20228;-80
2023/10/23 09:27:45;;;;;;;14.17;8.20;;;13.70;1.00;;;;;;5111528;27;20667;-81
2023/10/23 09:30:13;;;;;;;9.93;8.00;;;13.80;99.90;;;;;;5109855;27;20579;-80
2023/10/23 09:32:40;;;;;;;11.27;7.90;;;13.90;1.00;;;;;;5116457;27;20220;-80
2023/10/23 09:35:08;;;;;;;10.00;7.65;;;13.70;1.00;;;;;;5118705;27;20215;-81
2023/10/23 09:37:36;;;;;;;14.95;9.23;;;13.80;1.00;;;;;;5117980;28;20205;-79
2023/10/23 09:40:08;;;;;;;12.30;7.57;;;13.80;1.00;;;;;;5117253;27;20594;-81
2023/10/23 09:42:36;;;;;;;11.60;8.05;;;13.90;1.00;;;;;;5118391;28;20211;-81
2023/10/23 09:45:04;;;;;;;13.57;8.25;;;14.00;99.90;;;;;;5118770;27;20196;-80
2023/10/23 09:47:32;;;;;;;13.20;7.75;;;14.10;99.90;;;;;;5111222;28;20223;-80
2023/10/23 09:50:01;;;;;;;11.13;8.15;;;14.20;1.00;;;;;;5115665;27;20307;-79
2023/10/23 09:52:28;;;;;;;12.98;8.02;;;14.40;1.00;;;;;;5117511;28;20247;-79
2023/10/23 09:55:00;;;;;;;8.85;7.28;;;14.50;1.00;;;;;;5117176;28;20201;-80
2023/10/23 09:57:34;;;;;;;10.80;7.90;;;14.60;1.00;;;;;;5111465;27;20720;-79
2023/10/23 10:00:11;;;;;;;8.98;7.25;;;14.60;1.00;;;;;;5118252;27;20558;-80
2023/10/23 10:02:41;;;;;;;11.85;7.90;;;14.70;1.00;;;;;;5117442;28;20250;-80
2023/10/23 10:05:12;;;;;;;11.23;7.97;;;14.70;1.00;;;;;;5125274;27;20205;-79
2023/10/23 10:07:48;;;;;;;8.95;8.02;;;14.90;99.90;;;;;;5117915;28;20590;-80
2023/10/23 10:10:16;;;;;;;12.25;8.32;;;15.30;99.90;;;;;;5100334;28;20200;-80
2023/10/23 10:12:43;;;;;;;11.02;8.23;;;15.70;55.10;;;;;;5116301;28;20549;-81
2023/10/23 10:15:12;;;;;;;12.45;9.02;;;16.10;1.00;;;;;;5115688;28;20197;-81
2023/10/23 10:17:40;;;;;;;9.75;7.63;;;16.00;1.00;;;;;;5115991;27;20261;-81
2023/10/23 10:20:09;;;;;;;13.07;8.68;;;16.20;1.00;;;;;;5116246;27;20207;-81
2023/10/23 10:22:38;;;;;;;10.63;8.20;;;16.40;1.00;;;;;;5115830;27;20201;-81
2023/10/23 10:25:07;;;;;;;10.40;7.70;;;16.20;1.00;;;;;;5115501;28;20215;-81
2023/10/23 10:27:35;;;;;;;12.27;7.82;;;16.30;1.00;;;;;;5114812;27;20230;-81
2023/10/23 10:30:04;;;;;;;12.10;8.80;;;16.60;1.00;;;;;;5115445;27;20205;-81
2023/10/23 10:32:33;;;;;;;12.23;8.55;;;16.60;1.00;;;;;;5115389;27;20574;-80
2023/10/23 10:35:03;;;;;;;10.50;8.23;;;16.80;99.90;;;;;;5115613;27;20201;-79
2023/10/23 10:37:32;;;;;;;10.75;8.60;;;16.80;99.90;;;;;;5114762;27;20197;-79
2023/10/23 10:40:08;;;;;;;13.30;8.00;;;16.60;99.90;;;;;;5116349;28;20291;-79
2023/10/23 10:42:40;;;;;;;12.60;8.10;;;16.30;99.90;;;;;;5118676;27;20249;-79
2023/10/23 10:45:18;;;;;;;9.85;8.02;;;16.10;99.90;;;;;;5121564;27;20213;-79
2023/10/23 10:47:52;;;;;;;10.38;7.05;;;15.90;1.00;;;;;;5131365;27;20229;-79
2023/10/23 10:50:35;;;;;;;10.48;7.82;;;15.60;1.00;;;;;;5123713;27;20272;-78
2023/10/23 10:53:04;;;;;;;14.45;8.45;;;15.60;1.00;;;;;;5138661;27;20695;-80
2023/10/23 10:55:32;;;;;;;11.68;7.80;;;15.40;1.00;;;;;;5140341;27;20204;-79
2023/10/23 10:57:59;;;;;;;13.13;8.57;;;15.50;1.00;;;;;;5138830;27;20208;-79
2023/10/23 11:00:29;;;;;;;11.75;7.70;;;15.70;1.00;;;;;;5130591;27;20277;-79
2023/10/23 11:02:57;;;;;;;11.90;8.20;;;16.10;1.00;;;;;;5137802;27;20206;-79
2023/10/23 11:05:24;;;;;;;10.70;8.00;;;16.40;99.90;;;;;;5138033;27;20269;-79
2023/10/23 11:07:51;;;;;;;11.98;7.90;;;16.60;99.90;;;;;;5137932;27;20271;-79
2023/10/23 11:10:19;;;;;;;10.82;7.57;;;16.50;99.90;;;;;;5137744;27;20226;-79
2023/10/23 11:12:46;;;;;;;9.30;7.30;;;16.70;99.90;;;;;;5137765;27;20224;-80
2023/10/23 11:15:15;;;;;;;9.60;7.32;;;16.60;99.90;;;;;;5137888;27;20219;-80
2023/10/23 11:17:42;;;;;;;12.05;6.30;;;16.20;99.90;;;;;;5137677;27;20207;-79
2023/10/23 11:20:12;;;;;;;7.30;6.15;;;16.50;99.90;;;;;;5136883;27;20207;-79
2023/10/23 11:22:41;;;;;;;9.00;6.72;;;16.90;99.90;;;;;;5122648;27;20201;-80
2023/10/23 11:25:09;;;;;;;8.95;6.53;;;17.10;99.90;;;;;;5135096;27;20201;-80
2023/10/23 11:27:36;;;;;;;8.35;6.25;;;17.30;73.10;;;;;;5126991;27;20212;-79
2023/10/23 11:30:04;;;;;;;10.63;6.25;;;17.20;1.00;;;;;;5117989;27;20211;-80
2023/10/23 11:32:31;;;;;;;7.65;6.35;;;17.20;1.00;;;;;;5120698;27;20303;-79
2023/10/23 11:35:03;;;;;;;8.82;6.00;;;17.40;1.00;;;;;;5132592;27;20203;-79
2023/10/23 11:37:37;;;;;;;8.45;6.32;;;17.40;1.00;;;;;;5136549;27;20261;-80
2023/10/23 11:40:06;;;;;;;8.23;6.80;;;17.40;1.00;;;;;;5136317;27;20231;-80
2023/10/23 11:42:53;;;;;;;8.05;6.47;;;17.30;1.00;;;;;;5136403;27;20227;-80
2023/10/23 11:45:21;;;;;;;7.85;6.68;;;17.20;1.00;;;;;;5119664;27;20205;-80
2023/10/23 11:47:51;;;;;;;8.10;5.93;;;17.60;1.00;;;;;;5118902;28;20205;-80
2023/10/23 11:50:19;;;;;;;8.57;5.57;;;17.10;1.00;;;;;;5121652;27;20224;-79
2023/10/23 11:52:48;;;;;;;7.88;6.13;;;17.00;1.00;;;;;;5137187;27;20224;-80
2023/10/23 11:55:17;;;;;;;7.93;6.05;;;16.80;1.00;;;;;;5137053;27;20207;-79
2023/10/23 11:57:47;;;;;;;7.30;6.00;;;17.00;1.00;;;;;;5138191;27;20222;-79
2023/10/23 12:00:15;;;;;;;8.88;6.10;;;17.00;1.00;;;;;;5130374;27;20204;-80
2023/10/23 12:02:44;;;;;;;8.98;5.65;;;16.80;1.00;;;;;;5137371;27;20225;-79
2023/10/23 12:05:12;;;;;;;7.00;5.78;;;16.90;1.00;;;;;;5137202;27;20231;-79
2023/10/23 12:07:41;;;;;;;7.10;5.90;;;17.30;1.00;;;;;;5125078;27;20228;-80
2023/10/23 12:10:10;;;;;;;8.63;6.10;;;17.40;1.00;;;;;;5129619;27;20337;-79
2023/10/23 12:12:39;;;;;;;6.38;5.50;;;17.20;1.00;;;;;;5136149;27;20255;-80
2023/10/23 12:15:07;;;;;;;10.38;5.85;;;17.20;1.00;;;;;;5135384;27;20204;-79
2023/10/23 12:17:34;;;;;;;7.13;5.47;;;17.90;1.00;;;;;;5136300;27;20231;-80
2023/10/23 12:20:02;;;;;;;7.85;5.70;;;18.80;1.00;;;;;;5134330;27;20212;-80
2023/10/23 12:22:38;;;;;;;7.93;5.70;;;19.10;1.00;;;;;;5135566;27;20204;-79
2023/10/23 12:25:05;;;;;;;7.28;4.95;;;19.10;1.00;;;;;;5134471;27;20240;-79
2023/10/23 12:27:34;;;;;;;8.80;6.20;;;18.90;1.00;;;;;;5135141;27;20201;-79
2023/10/23 12:30:02;;;;;;;9.57;6.05;;;18.20;1.00;;;;;;5134044;27;20211;-80
2023/10/23 12:32:29;;;;;;;10.30;6.32;;;17.50;1.00;;;;;;5134669;27;20252;-79
2023/10/23 12:34:58;;;;;;;9.07;7.03;;;16.80;1.00;;;;;;5133522;27;20291;-79
2023/10/23 12:37:27;;;;;;;9.15;6.55;;;16.50;1.00;;;;;;5126470;27;20204;-80
2023/10/23 12:39:54;;;;;;;8.63;6.95;;;16.30;1.00;;;;;;5135379;27;20200;-80
2023/10/23 12:42:21;;;;;;;8.95;7.05;;;16.20;20.90;;;;;;5130227;27;20227;-79
2023/10/23 12:44:49;;;;;;;7.40;6.00;;;16.30;2.30;;;;;;5123403;27;20200;-79
2023/10/23 12:47:16;;;;;;;7.82;6.50;;;16.60;1.00;;;;;;5120669;27;20561;-79
2023/10/23 12:49:43;;;;;;;9.90;6.10;;;16.50;1.00;;;;;;5111531;27;20216;-78
2023/10/23 12:52:13;;;;;;;7.22;6.00;;;16.50;1.00;;;;;;5112965;27;20230;-78